Time;durP1;ratioP1;P1;durP2;ratioP2;P2;SDS_P1;SDS_P2;PMS_P1;PMS_P2;Temp;Humidity;BMP_temperature;BMP_pressure;BME280_temperature;BME280_humidity;BME280_pressure;Samples;Min_cycle;Max_cycle;Signal;HPM_P1;HPM_P2
2022/11/25 00:00:40;;;;;;;101.13;18.00;;;;;;;2.99;100.00;100936.72;7394424;19;20410;-60
2022/11/25 00:03:09;;;;;;;113.87;19.00;;;;;;;3.00;100.00;100937.59;7389787;19;20414;-57
2022/11/25 00:05:39;;;;;;;49.30;18.10;;;;;;;2.97;100.00;100943.34;7392844;19;20451;-59
2022/11/25 00:08:08;;;;;;;68.97;16.80;;;;;;;2.90;100.00;100939.47;7390098;19;20423;-59
2022/11/25 00:10:37;;;;;;;76.10;16.70;;;;;;;2.88;100.00;100933.38;7393332;19;20489;-59
2022/11/25 00:13:09;;;;;;;38.17;15.40;;;;;;;2.88;100.00;100928.28;7390728;19;20446;-57
2022/11/25 00:15:39;;;;;;;56.50;15.50;;;;;;;2.80;100.00;100917.50;7392712;19;20431;-58
2022/11/25 00:18:08;;;;;;;341.40;29.37;;;;;;;2.91;100.00;100928.50;7389897;19;20422;-56
2022/11/25 00:20:39;;;;;;;36.90;13.97;;;;;;;2.99;100.00;100913.78;7393892;19;20396;-55
2022/11/25 00:23:08;;;;;;;262.43;24.10;;;;;;;2.97;100.00;100920.41;7390557;19;20423;-59
2022/11/25 00:25:38;;;;;;;60.20;15.63;;;;;;;2.99;100.00;100916.34;7392202;19;20423;-56
2022/11/25 00:28:10;;;;;;;240.10;26.13;;;;;;;3.03;100.00;100910.69;7391695;19;20443;-54
2022/11/25 00:30:39;;;;;;;231.30;23.23;;;;;;;3.15;100.00;100913.28;7393115;19;20395;-57
2022/11/25 00:33:09;;;;;;;189.97;21.90;;;;;;;3.27;100.00;100912.41;7390900;19;20423;-58
2022/11/25 00:35:39;;;;;;;201.47;21.50;;;;;;;3.40;100.00;100909.06;7391678;19;20779;-58
2022/11/25 00:38:09;;;;;;;100.03;17.83;;;;;;;3.30;100.00;100913.53;7389763;19;20415;-60
2022/11/25 00:40:38;;;;;;;168.43;22.27;;;;;;;3.55;100.00;100915.31;7392472;19;20404;-59
2022/11/25 00:45:53;;;;;;;90.70;18.50;;;;;;;3.47;100.00;100918.94;7391674;19;20463;-60
2022/11/25 00:48:22;;;;;;;79.80;17.97;;;;;;;3.46;100.00;100914.63;7388906;19;20443;-60
2022/11/25 00:50:51;;;;;;;41.63;15.43;;;;;;;3.36;100.00;100923.28;7392703;19;20391;-60
2022/11/25 00:53:21;;;;;;;42.47;16.43;;;;;;;3.43;100.00;100919.53;7390708;19;20411;-59
2022/11/25 00:58:36;;;;;;;146.03;19.77;;;;;;;3.56;100.00;100919.63;7390372;19;20776;-59
2022/11/25 01:01:05;;;;;;;65.40;16.20;;;;;;;3.64;100.00;100915.97;7392714;19;20428;-54
2022/11/25 01:03:36;;;;;;;69.93;16.77;;;;;;;3.45;100.00;100920.50;7389730;19;20434;-59
2022/11/25 01:06:06;;;;;;;84.70;18.03;;;;;;;3.49;100.00;100917.44;7391089;19;20438;-59
2022/11/25 01:08:36;;;;;;;52.83;16.90;;;;;;;3.47;100.00;100911.31;7390465;19;20427;-58
2022/11/25 01:11:08;;;;;;;122.87;18.60;;;;;;;3.23;100.00;100918.94;7391602;19;20407;-56
2022/11/25 01:13:40;;;;;;;170.43;20.40;;;;;;;3.17;100.00;100924.47;7386317;19;20399;-57
2022/11/25 01:16:13;;;;;;;402.40;30.30;;;;;;;3.15;100.00;100935.31;7391127;19;20618;-59
2022/11/25 01:18:42;;;;;;;261.27;26.43;;;;;;;3.07;100.00;100929.63;7389826;19;20418;-59
2022/11/25 01:21:13;;;;;;;239.73;24.00;;;;;;;3.09;100.00;100933.22;7392053;19;20797;-60
2022/11/25 01:23:44;;;;;;;210.63;23.53;;;;;;;3.15;100.00;100932.78;7389221;19;20407;-60
2022/11/25 01:26:15;;;;;;;66.97;18.40;;;;;;;3.31;100.00;100927.16;7392178;19;20455;-56
2022/11/25 01:28:47;;;;;;;358.10;37.97;;;;;;;3.32;100.00;100922.16;7386405;19;20415;-60
2022/11/25 01:31:18;;;;;;;155.77;25.53;;;;;;;3.41;100.00;100918.50;7391881;19;20388;-57
2022/11/25 01:33:50;;;;;;;57.70;19.57;;;;;;;3.31;100.00;100910.19;7390000;19;20423;-59
2022/11/25 01:36:20;;;;;;;55.43;20.23;;;;;;;3.26;100.00;100908.97;7390217;19;20441;-56
2022/11/25 01:38:52;;;;;;;111.57;21.57;;;;;;;3.22;100.00;100922.25;7368945;19;20419;-58
2022/11/25 01:41:23;;;;;;;48.87;19.67;;;;;;;3.20;100.00;100916.16;7391946;19;20398;-55
2022/11/25 01:44:10;;;;;;;52.43;18.10;;;;;;;3.17;100.00;100910.84;7392474;19;20819;-56
2022/11/25 01:46:59;;;;;;;189.53;24.97;;;;;;;3.13;100.00;100914.81;7389293;19;20400;-53
2022/11/25 01:49:32;;;;;;;77.37;20.27;;;;;;;3.18;100.00;100913.47;7391032;19;20415;-56
2022/11/25 01:52:05;;;;;;;62.00;20.10;;;;;;;3.22;100.00;100905.28;7386671;19;20430;-59
2022/11/25 01:54:37;;;;;;;109.37;20.57;;;;;;;3.10;100.00;100892.53;7390374;19;20443;-56
2022/11/25 01:57:12;;;;;;;56.40;17.60;;;;;;;3.01;100.00;100893.50;7388020;19;20399;-57
2022/11/25 01:59:47;;;;;;;47.77;17.20;;;;;;;3.02;100.00;100913.13;7390166;19;20390;-60
2022/11/25 02:02:16;;;;;;;68.73;18.80;;;;;;;3.01;100.00;100909.69;7386336;19;20438;-55
2022/11/25 02:04:46;;;;;;;70.37;20.10;;;;;;;3.02;100.00;100906.34;7389697;19;20498;-56
2022/11/25 02:07:19;;;;;;;40.27;17.07;;;;;;;3.05;100.00;100911.69;7391749;19;20407;-56
2022/11/25 02:09:50;;;;;;;54.03;17.93;;;;;;;3.06;100.00;100910.91;7397831;19;20387;-60
2022/11/25 02:12:20;;;;;;;34.77;17.90;;;;;;;3.04;100.00;100917.59;7390488;19;20434;-57
2022/11/25 02:14:53;;;;;;;36.17;18.70;;;;;;;2.96;100.00;100921.19;7400597;19;20447;-54
2022/11/25 02:17:23;;;;;;;41.47;20.50;;;;;;;2.91;100.00;100922.50;7394119;19;20403;-56
2022/11/25 02:20:00;;;;;;;38.93;18.93;;;;;;;2.97;100.00;100920.41;7397645;19;20388;-58
2022/11/25 02:22:37;;;;;;;41.57;18.60;;;;;;;3.10;100.00;100924.78;7394652;19;20431;-56
2022/11/25 02:25:16;;;;;;;34.47;17.97;;;;;;;3.08;100.00;100926.34;7396792;19;20426;-59
2022/11/25 02:27:48;;;;;;;36.57;17.80;;;;;;;3.06;100.00;100923.66;7393361;19;20434;-57
2022/11/25 02:30:17;;;;;;;41.10;18.50;;;;;;;3.07;100.00;100919.44;7397631;19;20383;-56
2022/11/25 02:32:47;;;;;;;43.03;19.67;;;;;;;3.07;100.00;100915.25;7392538;19;20422;-59
2022/11/25 02:35:29;;;;;;;41.00;18.20;;;;;;;3.02;100.00;100916.56;7398375;19;20431;-57
2022/11/25 02:38:02;;;;;;;37.27;18.07;;;;;;;3.02;100.00;100921.66;7393353;19;20426;-59
2022/11/25 02:40:36;;;;;;;42.53;18.80;;;;;;;3.02;100.00;100930.97;7397518;19;20391;-57
2022/11/25 02:43:06;;;;;;;41.13;16.87;;;;;;;3.05;100.00;100924.44;7393964;19;20462;-55
2022/11/25 02:45:43;;;;;;;38.73;17.70;;;;;;;3.04;100.00;100935.44;7395296;19;20411;-58
2022/11/25 02:48:12;;;;;;;41.60;18.60;;;;;;;3.00;100.00;100942.69;7394819;19;20406;-55
2022/11/25 02:50:42;;;;;;;39.87;17.47;;;;;;;2.95;100.00;100938.16;7397057;19;20380;-53
2022/11/25 02:53:12;;;;;;;38.43;18.23;;;;;;;3.00;100.00;100930.84;7394434;19;20415;-56
2022/11/25 02:55:44;;;;;;;38.00;17.40;;;;;;;3.00;100.00;100935.06;7394710;19;20411;-54
2022/11/25 02:58:14;;;;;;;39.13;17.40;;;;;;;3.04;100.00;100929.44;7393750;19;20438;-58
2022/11/25 03:00:44;;;;;;;36.23;17.50;;;;;;;3.05;100.00;100932.09;7396237;19;20793;-58
2022/11/25 03:03:14;;;;;;;38.67;17.00;;;;;;;3.03;100.00;100938.72;7391296;19;20453;-59
2022/11/25 03:05:44;;;;;;;41.93;16.93;;;;;;;2.96;100.00;100946.69;7395247;19;20443;-54
2022/11/25 03:08:13;;;;;;;31.73;16.63;;;;;;;2.97;100.00;100953.56;7394506;19;20474;-55
2022/11/25 03:10:45;;;;;;;41.03;16.90;;;;;;;3.04;100.00;100954.91;7395912;19;20396;-55
2022/11/25 03:13:15;;;;;;;45.27;17.87;;;;;;;3.02;100.00;100944.59;7393637;19;20430;-57
2022/11/25 03:15:44;;;;;;;43.97;16.93;;;;;;;3.01;100.00;100955.56;7394418;19;20946;-53
2022/11/25 03:18:14;;;;;;;36.20;15.83;;;;;;;3.02;100.00;100953.94;7390571;19;20518;-57
2022/11/25 03:20:43;;;;;;;34.87;16.07;;;;;;;3.05;100.00;100959.25;7395560;19;20388;-60
2022/11/25 03:23:13;;;;;;;38.13;17.13;;;;;;;3.05;100.00;100955.03;7391797;19;20431;-56
2022/11/25 03:25:45;;;;;;;46.17;19.03;;;;;;;3.07;100.00;100956.03;7394405;19;20439;-61
2022/11/25 03:28:14;;;;;;;41.40;16.70;;;;;;;3.14;100.00;100952.31;7392501;19;20938;-54
2022/11/25 03:30:44;;;;;;;41.10;17.87;;;;;;;3.08;100.00;100960.34;7395475;19;20402;-59
2022/11/25 03:33:14;;;;;;;39.00;17.17;;;;;;;2.97;100.00;100953.56;7391808;19;20778;-60
2022/11/25 03:35:43;;;;;;;40.80;17.40;;;;;;;2.90;100.00;100958.97;7393258;19;20431;-61
2022/11/25 03:38:13;;;;;;;40.67;16.87;;;;;;;2.90;100.00;100958.97;7390911;19;20454;-60
2022/11/25 03:40:46;;;;;;;37.73;16.60;;;;;;;2.83;100.00;100971.25;7394997;19;21061;-59
2022/11/25 03:43:15;;;;;;;37.57;17.07;;;;;;;2.85;100.00;100966.28;7390994;19;20438;-59
2022/11/25 03:45:46;;;;;;;32.23;15.13;;;;;;;2.89;100.00;100970.84;7393671;19;20435;-60
2022/11/25 03:48:16;;;;;;;36.70;16.60;;;;;;;2.93;100.00;100967.72;7390832;19;20490;-60
2022/11/25 03:50:45;;;;;;;38.07;17.13;;;;;;;2.95;100.00;100962.75;7394475;19;20392;-60
2022/11/25 03:53:14;;;;;;;46.80;18.10;;;;;;;2.90;100.00;100959.88;7392964;19;20447;-59
2022/11/25 03:55:49;;;;;;;41.10;16.80;;;;;;;2.95;100.00;100965.31;7393595;19;20525;-58
2022/11/25 03:58:18;;;;;;;38.07;17.17;;;;;;;3.01;100.00;100981.06;7393077;19;20426;-59
2022/11/25 04:00:48;;;;;;;48.70;18.50;;;;;;;3.01;100.00;100980.16;7394621;19;20932;-56
2022/11/25 04:03:17;;;;;;;39.80;16.83;;;;;;;2.90;100.00;100981.91;7392475;19;20959;-58
2022/11/25 04:05:46;;;;;;;43.70;17.97;;;;;;;2.89;100.00;100982.69;7392472;19;20443;-61
2022/11/25 04:08:16;;;;;;;44.83;17.80;;;;;;;2.87;100.00;100981.69;7372061;19;20816;-60
2022/11/25 04:10:48;;;;;;;35.00;16.47;;;;;;;2.90;100.00;100984.47;7393724;19;20437;-59
2022/11/25 04:13:15;;;;;;;50.37;17.40;;;;;;;2.92;100.00;100982.94;7392289;19;20427;-58
2022/11/25 04:15:47;;;;;;;40.60;17.73;;;;;;;2.95;100.00;100981.50;7392876;19;20419;-57
2022/11/25 04:18:17;;;;;;;45.60;17.53;;;;;;;3.00;100.00;100981.84;7388881;19;20419;-59
2022/11/25 04:20:47;;;;;;;39.00;17.30;;;;;;;2.94;100.00;100981.38;7393897;19;20396;-60
2022/11/25 04:23:17;;;;;;;45.00;18.60;;;;;;;2.88;100.00;100983.47;7391507;19;20504;-58
2022/11/25 04:25:50;;;;;;;46.83;18.53;;;;;;;2.94;100.00;100978.84;7393808;19;20452;-59
2022/11/25 04:28:20;;;;;;;40.60;17.73;;;;;;;2.92;100.00;100972.75;7391663;19;20427;-57
2022/11/25 04:30:49;;;;;;;36.47;16.90;;;;;;;2.84;100.00;100967.91;7392356;19;20478;-58
2022/11/25 04:33:19;;;;;;;37.73;15.70;;;;;;;2.74;100.00;100968.00;7391782;19;20439;-59
2022/11/25 04:35:49;;;;;;;40.43;16.60;;;;;;;2.67;100.00;100958.97;7393332;19;20925;-59
2022/11/25 04:38:18;;;;;;;34.17;16.00;;;;;;;2.65;100.00;100969.81;7390813;19;20411;-60
2022/11/25 04:40:50;;;;;;;38.77;17.03;;;;;;;2.66;100.00;100971.63;7391978;19;20435;-59
2022/11/25 04:43:20;;;;;;;37.50;15.97;;;;;;;2.64;100.00;100968.06;7389803;19;20411;-55
2022/11/25 04:45:50;;;;;;;39.63;17.60;;;;;;;2.62;100.00;100974.69;7393052;19;20467;-55
2022/11/25 04:48:39;;;;;;;35.93;16.30;;;;;;;2.63;100.00;100976.47;7390359;19;20414;-56
2022/11/25 04:51:09;;;;;;;41.00;15.73;;;;;;;2.63;100.00;100972.28;7391472;19;20518;-58
2022/11/25 04:53:38;;;;;;;34.80;15.97;;;;;;;2.54;100.00;100972.44;7390875;19;20391;-57
2022/11/25 04:56:11;;;;;;;43.60;15.97;;;;;;;2.55;100.00;100974.22;7392909;19;20398;-54
2022/11/25 05:01:22;;;;;;;56.60;26.37;;;;;;;3.94;100.00;100983.56;7394734;19;20431;-56
2022/11/25 05:03:52;;;;;;;71.13;29.47;;;;;;;4.64;100.00;100968.88;7391118;19;20964;-58
2022/11/25 05:06:25;;;;;;;51.20;21.37;;;;;;;4.24;100.00;100971.19;7392420;19;20400;-50
2022/11/25 05:08:55;;;;;;;57.00;25.67;;;;;;;4.24;100.00;100971.19;7390844;19;20415;-54
2022/11/25 05:11:27;;;;;;;36.67;15.50;;;;;;;3.87;100.00;100966.91;7393136;19;20804;-57
2022/11/25 05:13:56;;;;;;;30.40;14.80;;;;;;;4.08;100.00;100972.66;7392114;19;20965;-57
2022/11/25 05:16:26;;;;;;;32.57;14.77;;;;;;;4.01;100.00;100968.78;7390804;19;20408;-60
2022/11/25 05:18:56;;;;;;;30.37;14.50;;;;;;;3.82;100.00;100976.78;7390862;19;20778;-58
2022/11/25 05:21:26;;;;;;;35.83;14.07;;;;;;;3.93;100.00;100987.78;7387304;19;20423;-55
2022/11/25 05:23:56;;;;;;;27.80;13.40;;;;;;;3.75;100.00;100989.88;7391720;19;20399;-58
2022/11/25 05:26:28;;;;;;;25.90;12.40;;;;;;;3.69;100.00;100994.53;7391576;19;20400;-56
2022/11/25 05:28:58;;;;;;;30.23;12.57;;;;;;;3.29;100.00;100997.56;7390856;19;20422;-58
2022/11/25 05:31:27;;;;;;;26.10;11.27;;;;;;;3.24;100.00;101002.34;7386432;19;20427;-59
2022/11/25 05:33:56;;;;;;;25.10;12.30;;;;;;;3.40;100.00;101000.91;7391024;19;20396;-54
2022/11/25 05:36:26;;;;;;;24.67;11.77;;;;;;;3.47;100.00;101004.03;7392048;19;20395;-57
2022/11/25 05:38:55;;;;;;;25.00;10.63;;;;;;;3.19;100.00;101008.75;7390415;19;20411;-53
2022/11/25 05:41:27;;;;;;;21.40;10.70;;;;;;;3.12;100.00;101009.06;7388084;19;20451;-57
2022/11/25 05:43:57;;;;;;;24.47;11.60;;;;;;;3.14;100.00;100999.84;7390706;19;20791;-56
2022/11/25 05:46:26;;;;;;;24.13;12.50;;;;;;;3.25;100.00;101004.09;7392040;19;20399;-57
2022/11/25 05:48:56;;;;;;;25.23;11.43;;;;;;;3.52;100.00;101009.47;7388849;19;20458;-58
2022/11/25 05:51:27;;;;;;;25.73;10.93;;;;;;;3.62;100.00;101009.41;7390023;19;20445;-59
2022/11/25 05:53:56;;;;;;;28.27;11.80;;;;;;;3.59;100.00;101014.25;7375753;19;20411;-60
2022/11/25 05:56:28;;;;;;;21.70;11.20;;;;;;;3.78;100.00;101008.88;7391407;19;20406;-54
2022/11/25 05:58:59;;;;;;;30.83;12.40;;;;;;;3.68;100.00;101002.97;7390073;19;20754;-60
2022/11/25 06:01:28;;;;;;;28.80;13.53;;;;;;;3.76;100.00;101004.41;7387890;19;21045;-59
2022/11/25 06:04:01;;;;;;;24.77;11.00;;;;;;;3.71;100.00;101014.31;7390552;19;20380;-60
2022/11/25 06:06:31;;;;;;;28.93;12.37;;;;;;;3.51;100.00;101006.06;7389631;19;20391;-61
2022/11/25 06:09:00;;;;;;;33.43;12.40;;;;;;;3.45;100.00;101009.81;7389864;19;20398;-58
2022/11/25 06:11:32;;;;;;;23.73;11.10;;;;;;;3.42;100.00;100996.81;7366748;19;20450;-59
2022/11/25 06:14:02;;;;;;;25.57;10.30;;;;;;;3.44;100.00;100993.59;7389156;19;20379;-60
2022/11/25 06:16:31;;;;;;;26.17;11.20;;;;;;;3.40;100.00;100991.63;7388286;19;20516;-61
2022/11/25 06:19:04;;;;;;;26.23;10.70;;;;;;;3.44;100.00;100990.19;7389719;19;20416;-60
2022/11/25 06:21:33;;;;;;;29.60;11.70;;;;;;;3.27;100.00;100984.69;7386423;19;20434;-59
2022/11/25 06:24:03;;;;;;;30.97;10.80;;;;;;;3.23;100.00;100982.72;7392930;19;20387;-59
2022/11/25 06:26:35;;;;;;;31.23;13.77;;;;;;;3.17;100.00;100988.22;7386552;19;20754;-60
2022/11/25 06:29:04;;;;;;;24.80;10.97;;;;;;;3.12;100.00;100988.66;7390347;19;20924;-59
2022/11/25 06:31:34;;;;;;;25.07;10.53;;;;;;;3.05;100.00;100975.44;7385814;19;20789;-57
2022/11/25 06:34:05;;;;;;;25.53;11.60;;;;;;;3.05;100.00;100993.28;7389917;19;20395;-61
2022/11/25 06:36:34;;;;;;;27.43;11.50;;;;;;;3.09;100.00;100995.28;7387542;19;20403;-58
2022/11/25 06:39:04;;;;;;;28.03;11.73;;;;;;;3.19;100.00;100993.44;7389101;19;20415;-60
2022/11/25 06:41:36;;;;;;;32.17;11.77;;;;;;;3.18;100.00;100996.78;7384160;19;20434;-60
2022/11/25 06:44:06;;;;;;;30.93;12.50;;;;;;;3.17;100.00;100989.91;7389904;19;20423;-59
2022/11/25 06:46:35;;;;;;;31.50;12.47;;;;;;;3.21;100.00;100989.34;7385984;19;20904;-60
2022/11/25 06:49:04;;;;;;;30.00;12.00;;;;;;;3.26;100.00;100993.13;7388486;19;20407;-60
2022/11/25 06:51:34;;;;;;;37.53;13.07;;;;;;;3.22;100.00;100988.56;7369369;19;20441;-58
2022/11/25 06:54:03;;;;;;;28.90;12.70;;;;;;;3.21;100.00;100986.78;7396439;19;20459;-59
2022/11/25 06:56:35;;;;;;;34.83;12.60;;;;;;;3.27;100.00;100989.78;7394300;19;20396;-61
2022/11/25 06:59:05;;;;;;;34.07;13.40;;;;;;;3.26;100.00;100993.13;7395974;19;20410;-61
2022/11/25 07:01:34;;;;;;;32.63;12.83;;;;;;;3.34;100.00;100991.16;7391530;19;20976;-59
2022/11/25 07:04:06;;;;;;;28.00;12.30;;;;;;;3.40;100.00;100985.59;7396591;19;20463;-60
2022/11/25 07:06:35;;;;;;;35.33;12.67;;;;;;;3.52;100.00;100983.97;7390141;19;20434;-59
2022/11/25 07:09:06;;;;;;;36.10;13.67;;;;;;;3.56;100.00;100985.97;7395089;19;20924;-58
2022/11/25 07:11:39;;;;;;;40.27;13.10;;;;;;;3.71;100.00;100990.44;7392604;19;20438;-60
2022/11/25 07:14:11;;;;;;;43.37;12.67;;;;;;;3.76;100.00;100984.00;7396006;19;20371;-60
2022/11/25 07:16:42;;;;;;;32.10;12.20;;;;;;;3.59;100.00;100988.75;7393136;19;20391;-59
2022/11/25 07:19:13;;;;;;;27.63;11.80;;;;;;;3.44;100.00;100987.63;7395729;19;20954;-61
2022/11/25 07:21:44;;;;;;;30.13;11.40;;;;;;;3.42;100.00;100979.84;7395143;19;20379;-60
2022/11/25 07:24:15;;;;;;;36.93;14.80;;;;;;;3.43;100.00;100986.72;7396439;19;20392;-60
2022/11/25 07:26:47;;;;;;;23.00;10.57;;;;;;;3.33;100.00;101004.69;7391213;19;20384;-61
2022/11/25 07:29:18;;;;;;;37.60;13.37;;;;;;;3.24;100.00;101009.97;7395403;19;20388;-61
2022/11/25 07:32:08;;;;;;;35.67;12.80;;;;;;;3.37;100.00;101009.22;7391631;19;20447;-61
2022/11/25 07:34:39;;;;;;;30.93;11.43;;;;;;;3.40;100.00;101016.22;7395424;19;20929;-61
2022/11/25 07:37:09;;;;;;;37.17;12.70;;;;;;;3.39;100.00;101012.81;7392644;19;20428;-58
2022/11/25 07:39:38;;;;;;;29.33;13.47;;;;;;;3.29;100.00;101023.97;7394536;19;20431;-61
2022/11/25 07:42:10;;;;;;;25.10;9.93;;;;;;;3.31;100.00;101027.53;7391163;19;20442;-61
2022/11/25 07:44:40;;;;;;;37.50;12.37;;;;;;;3.29;100.00;101033.28;7395415;19;20388;-60
2022/11/25 07:47:09;;;;;;;30.77;11.07;;;;;;;3.42;100.00;101027.41;7392172;19;20411;-58
2022/11/25 07:49:39;;;;;;;30.77;11.53;;;;;;;3.46;100.00;101024.34;7393287;19;20427;-57
2022/11/25 07:52:08;;;;;;;29.67;11.10;;;;;;;3.51;100.00;101012.81;7391005;19;20399;-60
2022/11/25 07:54:38;;;;;;;27.27;10.90;;;;;;;3.47;100.00;101013.34;7395313;19;20762;-56
2022/11/25 07:57:07;;;;;;;40.50;11.57;;;;;;;3.41;100.00;101013.78;7392100;19;20412;-57
2022/11/25 07:59:40;;;;;;;26.97;10.30;;;;;;;3.40;100.00;101013.66;7393483;19;20442;-55
2022/11/25 08:02:11;;;;;;;15.10;6.30;;;;;;;3.38;100.00;101011.00;7390419;19;20425;-59
2022/11/25 08:04:40;;;;;;;19.07;8.47;;;;;;;3.41;100.00;101010.34;7393139;19;20388;-60
2022/11/25 08:07:09;;;;;;;22.13;9.93;;;;;;;3.44;100.00;101008.03;7389246;19;20741;-54
2022/11/25 08:09:39;;;;;;;27.27;10.70;;;;;;;3.46;100.00;101021.78;7393306;19;20486;-59
2022/11/25 08:12:09;;;;;;;26.37;10.60;;;;;;;3.49;100.00;101017.78;7393593;19;20944;-57
2022/11/25 08:14:41;;;;;;;16.77;8.70;;;;;;;3.65;100.00;101013.84;7394045;19;20772;-60
2022/11/25 08:17:13;;;;;;;23.83;8.83;;;;;;;3.70;100.00;101021.84;7389778;19;20411;-60
2022/11/25 08:19:42;;;;;;;27.03;9.37;;;;;;;3.61;100.00;101022.94;7396997;19;20796;-59
2022/11/25 08:22:12;;;;;;;27.37;10.60;;;;;;;3.67;100.00;101012.28;7389631;19;20415;-60
2022/11/25 08:24:41;;;;;;;16.73;7.80;;;;;;;3.68;100.00;101020.84;7393530;19;20388;-61
2022/11/25 08:27:11;;;;;;;22.87;8.70;;;;;;;3.74;100.00;101016.19;7387677;19;20808;-59
2022/11/25 08:29:43;;;;;;;20.07;7.97;;;;;;;3.79;100.00;101022.50;7391747;19;20551;-59
2022/11/25 08:32:12;;;;;;;19.07;8.30;;;;;;;3.83;100.00;101023.59;7391120;19;20407;-60
2022/11/25 08:34:44;;;;;;;21.87;7.17;;;;;;;3.86;100.00;101036.63;7396729;19;20414;-59
2022/11/25 08:37:13;;;;;;;30.60;9.20;;;;;;;3.91;100.00;101023.41;7390278;19;21274;-59
2022/11/25 08:39:42;;;;;;;18.43;6.80;;;;;;;4.02;100.00;101021.66;7392173;19;20424;-59
2022/11/25 08:42:21;;;;;;;23.33;6.80;;;;;;;4.08;100.00;101016.09;7389091;19;20955;-59
2022/11/25 08:44:56;;;;;;;20.27;7.67;;;;;;;4.10;100.00;101014.50;7394562;19;20414;-58
2022/11/25 08:47:26;;;;;;;16.60;6.70;;;;;;;4.24;100.00;101005.31;7389186;19;20461;-62
2022/11/25 08:49:56;;;;;;;19.53;6.67;;;;;;;4.28;100.00;101011.50;7391811;19;20434;-58
2022/11/25 08:52:27;;;;;;;21.77;6.60;;;;;;;4.27;100.00;101012.28;7390140;19;20425;-60
2022/11/25 08:54:57;;;;;;;19.73;7.30;;;;;;;4.24;100.00;101012.97;7392829;19;20380;-61
2022/11/25 08:57:26;;;;;;;15.93;6.63;;;;;;;4.33;100.00;101021.28;7389077;19;20798;-59
2022/11/25 08:59:58;;;;;;;14.73;6.63;;;;;;;4.29;100.00;101015.84;7392173;19;20420;-58
2022/11/25 09:02:28;;;;;;;15.37;6.10;;;;;;;4.20;100.00;101026.28;7392435;19;20439;-60
2022/11/25 09:04:57;;;;;;;18.87;7.13;;;;;;;4.27;100.00;101028.53;7394493;19;20422;-56
2022/11/25 09:07:27;;;;;;;18.03;7.53;;;;;;;4.28;100.00;101024.28;7386217;19;20428;-60
2022/11/25 09:10:00;;;;;;;22.93;7.20;;;;;;;4.36;100.00;101028.25;7391575;19;20423;-58
2022/11/25 09:12:29;;;;;;;15.70;6.60;;;;;;;4.41;100.00;101033.72;7388691;19;20419;-58
2022/11/25 09:15:02;;;;;;;15.90;6.70;;;;;;;4.48;100.00;101032.47;7391590;19;20726;-59
2022/11/25 09:17:33;;;;;;;28.17;8.10;;;;;;;4.49;100.00;101044.47;7388162;19;20442;-61
2022/11/25 09:20:04;;;;;;;16.60;6.13;;;;;;;4.39;100.00;101048.94;7391406;19;20422;-60
2022/11/25 09:22:33;;;;;;;19.13;7.67;;;;;;;4.39;100.00;101051.50;7390020;19;20411;-59
2022/11/25 09:25:02;;;;;;;22.87;7.33;;;;;;;4.32;100.00;101064.63;7391979;19;20395;-57
2022/11/25 09:27:33;;;;;;;25.13;5.90;;;;;;;4.37;100.00;101059.81;7385796;19;20430;-59
2022/11/25 09:30:05;;;;;;;13.23;5.60;;;;;;;4.34;100.00;101073.25;7389166;19;20527;-59
2022/11/25 09:32:35;;;;;;;20.90;7.83;;;;;;;4.36;100.00;101071.69;7388876;19;20393;-58
2022/11/25 09:35:05;;;;;;;16.87;6.23;;;;;;;4.28;100.00;101075.38;7391343;19;20384;-60
2022/11/25 09:37:34;;;;;;;21.33;6.00;;;;;;;4.14;100.00;101077.81;7389689;19;20436;-59
2022/11/25 09:40:04;;;;;;;20.60;6.50;;;;;;;4.19;100.00;101081.59;7390216;19;20416;-56
2022/11/25 09:48:32;;;;;;;15.07;6.33;;;;;;;4.30;100.00;101084.03;7384439;19;20791;-60
2022/11/25 09:51:10;;;;;;;19.27;7.17;;;;;;;4.25;100.00;101080.28;7386092;19;20427;-61
2022/11/25 09:53:45;;;;;;;29.60;11.63;;;;;;;4.29;100.00;101084.81;7384343;19;20447;-61
2022/11/25 09:56:23;;;;;;;27.50;9.60;;;;;;;4.23;100.00;101079.25;7390423;19;20831;-61
2022/11/25 09:58:55;;;;;;;14.50;7.30;;;;;;;4.38;100.00;101077.84;7389404;19;20411;-59
2022/11/25 10:01:30;;;;;;;38.73;14.10;;;;;;;4.49;100.00;101075.13;7389405;19;20434;-60
2022/11/25 10:04:03;;;;;;;26.60;10.03;;;;;;;4.53;100.00;101072.94;7388984;19;20419;-59
2022/11/25 10:06:34;;;;;;;27.90;8.20;;;;;;;4.43;100.00;101065.38;7385240;19;20427;-61
2022/11/25 10:09:06;;;;;;;27.97;9.67;;;;;;;4.43;100.00;101063.72;7387712;19;20401;-60
2022/11/25 10:11:46;;;;;;;34.43;12.67;;;;;;;4.57;100.00;101061.25;7385479;19;20431;-61
2022/11/25 10:14:21;;;;;;;43.00;14.57;;;;;;;4.63;100.00;101064.25;7389910;19;20403;-59
2022/11/25 10:16:58;;;;;;;21.07;8.50;;;;;;;4.44;100.00;101062.94;7387482;19;20407;-59
2022/11/25 10:19:38;;;;;;;23.70;10.40;;;;;;;4.49;100.00;101070.94;7389950;19;20392;-60
2022/11/25 10:22:22;;;;;;;35.63;15.83;;;;;;;4.48;100.00;101069.16;7385988;19;20774;-61
2022/11/25 10:24:53;;;;;;;26.73;9.03;;;;;;;4.44;100.00;101069.69;7389693;19;20415;-60
2022/11/25 10:27:26;;;;;;;17.30;7.40;;;;;;;4.40;100.00;101070.25;7387899;19;20416;-59
2022/11/25 10:30:03;;;;;;;21.47;9.00;;;;;;;4.37;100.00;101067.50;7396164;19;20483;-62
2022/11/25 10:32:42;;;;;;;17.40;7.17;;;;;;;4.43;100.00;101061.16;7394388;19;20449;-58
2022/11/25 10:35:20;;;;;;;17.90;8.13;;;;;;;4.51;100.00;101063.38;7397458;19;20414;-60
2022/11/25 10:37:53;;;;;;;29.37;8.47;;;;;;;4.48;100.00;101058.03;7391243;19;20435;-58
2022/11/25 10:40:23;;;;;;;30.63;9.00;;;;;;;4.54;100.00;101061.03;7395862;19;20434;-59
2022/11/25 10:42:53;;;;;;;22.73;8.70;;;;;;;4.56;100.00;101056.94;7392645;19;20807;-56
2022/11/25 10:45:26;;;;;;;19.50;7.80;;;;;;;4.67;100.00;101058.56;7397267;19;20412;-60
2022/11/25 10:48:18;;;;;;;18.60;8.80;;;;;;;4.70;100.00;101056.22;7392008;19;20507;-59
2022/11/25 10:50:59;;;;;;;19.20;8.10;;;;;;;4.68;100.00;101057.75;7395128;19;20486;-61
2022/11/25 10:53:29;;;;;;;24.13;8.33;;;;;;;4.73;100.00;101056.44;7397029;19;20982;-60
2022/11/25 10:56:02;;;;;;;21.93;7.90;;;;;;;4.76;100.00;101060.88;7396974;19;20825;-61
2022/11/25 10:58:34;;;;;;;14.63;8.27;;;;;;;4.83;100.00;101057.09;7393535;19;20412;-60
2022/11/25 11:01:06;;;;;;;24.77;8.00;;;;;;;4.78;100.00;101053.31;7389529;19;20480;-59
2022/11/25 11:03:38;;;;;;;20.00;8.63;;;;;;;4.55;100.00;101067.91;7393199;19;20427;-56
2022/11/25 11:06:08;;;;;;;18.13;9.20;;;;;;;4.59;100.00;101067.34;7396690;19;20427;-58
2022/11/25 11:08:42;;;;;;;18.27;7.50;;;;;;;4.73;100.00;101063.22;7389139;19;20427;-60
2022/11/25 11:11:18;;;;;;;24.47;9.63;;;;;;;4.69;100.00;101068.91;7394057;19;20428;-53
2022/11/25 11:13:49;;;;;;;18.10;8.30;;;;;;;4.62;100.00;101067.59;7392934;19;20399;-57
2022/11/25 11:16:31;;;;;;;22.43;9.57;;;;;;;5.07;100.00;101062.13;7395864;19;20410;-59
2022/11/25 11:19:03;;;;;;;24.60;11.00;;;;;;;4.95;100.00;101078.41;7396506;19;20459;-56
2022/11/25 11:21:35;;;;;;;21.20;8.77;;;;;;;4.84;100.00;101074.19;7390946;19;20422;-56
2022/11/25 11:24:16;;;;;;;14.80;8.00;;;;;;;5.09;100.00;101075.91;7394943;19;20388;-59
2022/11/25 11:26:45;;;;;;;16.10;8.43;;;;;;;5.42;100.00;101070.44;7393554;19;20744;-59
2022/11/25 11:29:18;;;;;;;16.63;8.57;;;;;;;5.14;100.00;101065.19;7392514;19;20435;-57
2022/11/25 11:31:50;;;;;;;19.13;8.47;;;;;;;4.87;100.00;101074.41;7393301;19;20801;-60
2022/11/25 11:34:37;;;;;;;22.27;8.93;;;;;;;5.20;100.00;101067.31;7395445;19;20388;-57
2022/11/25 11:37:21;;;;;;;18.97;8.80;;;;;;;5.31;100.00;101068.03;7392768;19;20411;-58
2022/11/25 11:40:18;;;;;;;23.33;10.53;;;;;;;5.29;100.00;101069.63;7392252;19;20417;-58
2022/11/25 11:42:58;;;;;;;21.10;8.37;;;;;;;5.38;100.00;101080.47;7392579;19;20434;-59
2022/11/25 11:45:42;;;;;;;28.10;13.17;;;;;;;6.50;100.00;101076.59;7394689;19;20391;-56